Terminal Aerodrome Forecast
Issued by NWS Cleveland, OH

Home | Current Version | Previous Version | Text Only | Print | Product List | Glossary Off
Versions: 1 2 3 4 5 6 7 8 9 10 11 12 13

000
FTUS41 KCLE 181726
TAFERI
TAF
KERI 181726Z 1818/1918 25014G22KT P6SM SCT045
     FM190600 28011G20KT P6SM SCT035 BKN050
     FM191000 26009KT P6SM SCT045 BKN060
     FM191400 25009KT P6SM BKN030 BKN050=

USA.gov is the U.S. government's official web portal to all federal, state and local government web resources and services.